sensor_id;sensor_type;location;lat;lon;timestamp;P1;durP1;ratioP1;P2;durP2;ratioP2
77722;SDS011;67811;42.656;23.394;2024-03-07T00:03:13;18.00;;;9.03;;
77722;SDS011;67811;42.656;23.394;2024-03-07T00:07:18;14.70;;;8.47;;
77722;SDS011;67811;42.656;23.394;2024-03-07T00:11:24;14.37;;;8.07;;
77722;SDS011;67811;42.656;23.394;2024-03-07T00:15:29;13.77;;;8.03;;
77722;SDS011;67811;42.656;23.394;2024-03-07T00:19:34;13.17;;;7.37;;
77722;SDS011;67811;42.656;23.394;2024-03-07T00:23:39;15.70;;;9.00;;
77722;SDS011;67811;42.656;23.394;2024-03-07T00:27:45;14.90;;;7.80;;
77722;SDS011;67811;42.656;23.394;2024-03-07T00:31:50;14.20;;;7.47;;
77722;SDS011;67811;42.656;23.394;2024-03-07T00:35:55;13.80;;;7.83;;
77722;SDS011;67811;42.656;23.394;2024-03-07T00:40:02;12.18;;;7.78;;
77722;SDS011;67811;42.656;23.394;2024-03-07T00:44:07;13.43;;;7.85;;
77722;SDS011;67811;42.656;23.394;2024-03-07T00:48:13;14.65;;;7.70;;
77722;SDS011;67811;42.656;23.394;2024-03-07T00:52:18;13.83;;;8.37;;
77722;SDS011;67811;42.656;23.394;2024-03-07T00:56:24;10.80;;;6.33;;
77722;SDS011;67811;42.656;23.394;2024-03-07T01:00:29;14.37;;;8.10;;
77722;SDS011;67811;42.656;23.394;2024-03-07T01:04:34;15.27;;;8.43;;
77722;SDS011;67811;42.656;23.394;2024-03-07T01:08:39;15.07;;;8.30;;
77722;SDS011;67811;42.656;23.394;2024-03-07T01:12:45;13.20;;;6.90;;
77722;SDS011;67811;42.656;23.394;2024-03-07T01:16:50;18.37;;;11.00;;
77722;SDS011;67811;42.656;23.394;2024-03-07T01:20:55;12.67;;;8.30;;
77722;SDS011;67811;42.656;23.394;2024-03-07T01:25:00;14.10;;;7.37;;
77722;SDS011;67811;42.656;23.394;2024-03-07T01:29:06;17.10;;;8.13;;
77722;SDS011;67811;42.656;23.394;2024-03-07T01:33:11;13.83;;;8.10;;
77722;SDS011;67811;42.656;23.394;2024-03-07T01:37:16;18.20;;;10.73;;
77722;SDS011;67811;42.656;23.394;2024-03-07T01:41:21;15.67;;;9.20;;
77722;SDS011;67811;42.656;23.394;2024-03-07T01:45:27;16.17;;;7.63;;
77722;SDS011;67811;42.656;23.394;2024-03-07T01:49:32;13.03;;;9.60;;
77722;SDS011;67811;42.656;23.394;2024-03-07T01:53:37;12.40;;;6.90;;
77722;SDS011;67811;42.656;23.394;2024-03-07T01:57:43;17.40;;;10.35;;
77722;SDS011;67811;42.656;23.394;2024-03-07T02:01:48;15.70;;;8.23;;
77722;SDS011;67811;42.656;23.394;2024-03-07T02:05:56;13.68;;;7.50;;
77722;SDS011;67811;42.656;23.394;2024-03-07T02:10:02;13.77;;;7.32;;
77722;SDS011;67811;42.656;23.394;2024-03-07T02:14:08;7.95;;;4.15;;
77722;SDS011;67811;42.656;23.394;2024-03-07T02:18:13;14.07;;;7.23;;
77722;SDS011;67811;42.656;23.394;2024-03-07T02:22:19;12.50;;;6.10;;
77722;SDS011;67811;42.656;23.394;2024-03-07T02:26:24;10.30;;;5.93;;
77722;SDS011;67811;42.656;23.394;2024-03-07T02:30:30;9.10;;;4.97;;
77722;SDS011;67811;42.656;23.394;2024-03-07T02:34:35;3.38;;;2.20;;
77722;SDS011;67811;42.656;23.394;2024-03-07T02:38:41;10.87;;;5.30;;
77722;SDS011;67811;42.656;23.394;2024-03-07T02:42:46;6.30;;;2.83;;
77722;SDS011;67811;42.656;23.394;2024-03-07T02:46:51;6.23;;;3.40;;
77722;SDS011;67811;42.656;23.394;2024-03-07T02:50:56;5.33;;;2.90;;
77722;SDS011;67811;42.656;23.394;2024-03-07T02:55:02;4.00;;;1.33;;
77722;SDS011;67811;42.656;23.394;2024-03-07T02:59:07;1.07;;;0.40;;
77722;SDS011;67811;42.656;23.394;2024-03-07T03:03:12;0.93;;;0.37;;
77722;SDS011;67811;42.656;23.394;2024-03-07T03:07:18;1.77;;;0.70;;
77722;SDS011;67811;42.656;23.394;2024-03-07T03:11:23;0.37;;;0.30;;
77722;SDS011;67811;42.656;23.394;2024-03-07T03:15:29;1.15;;;0.50;;
77722;SDS011;67811;42.656;23.394;2024-03-07T03:19:34;1.03;;;0.60;;
77722;SDS011;67811;42.656;23.394;2024-03-07T03:23:39;0.70;;;0.40;;
77722;SDS011;67811;42.656;23.394;2024-03-07T03:27:45;0.57;;;0.43;;
77722;SDS011;67811;42.656;23.394;2024-03-07T03:31:50;1.50;;;0.80;;
77722;SDS011;67811;42.656;23.394;2024-03-07T03:35:55;0.93;;;0.60;;
77722;SDS011;67811;42.656;23.394;2024-03-07T03:40:00;0.93;;;0.37;;
77722;SDS011;67811;42.656;23.394;2024-03-07T03:44:06;2.30;;;0.80;;
77722;SDS011;67811;42.656;23.394;2024-03-07T03:48:11;1.00;;;0.60;;
77722;SDS011;67811;42.656;23.394;2024-03-07T03:52:16;1.37;;;0.70;;
77722;SDS011;67811;42.656;23.394;2024-03-07T03:56:22;1.10;;;0.70;;
77722;SDS011;67811;42.656;23.394;2024-03-07T04:00:27;1.23;;;0.63;;
77722;SDS011;67811;42.656;23.394;2024-03-07T04:04:32;1.60;;;0.80;;
77722;SDS011;67811;42.656;23.394;2024-03-07T04:08:37;1.73;;;0.90;;
77722;SDS011;67811;42.656;23.394;2024-03-07T04:12:43;0.93;;;0.70;;
77722;SDS011;67811;42.656;23.394;2024-03-07T04:16:48;2.15;;;1.08;;
77722;SDS011;67811;42.656;23.394;2024-03-07T04:20:54;2.07;;;1.00;;
77722;SDS011;67811;42.656;23.394;2024-03-07T04:24:59;2.27;;;0.93;;
77722;SDS011;67811;42.656;23.394;2024-03-07T04:29:05;1.10;;;0.60;;
77722;SDS011;67811;42.656;23.394;2024-03-07T04:33:10;3.07;;;1.10;;
77722;SDS011;67811;42.656;23.394;2024-03-07T04:37:16;1.67;;;0.87;;
77722;SDS011;67811;42.656;23.394;2024-03-07T04:41:21;5.40;;;2.03;;
77722;SDS011;67811;42.656;23.394;2024-03-07T04:45:26;3.63;;;1.67;;
77722;SDS011;67811;42.656;23.394;2024-03-07T04:49:32;4.80;;;2.10;;
77722;SDS011;67811;42.656;23.394;2024-03-07T04:53:38;4.13;;;1.95;;
77722;SDS011;67811;42.656;23.394;2024-03-07T04:57:43;2.20;;;1.20;;
77722;SDS011;67811;42.656;23.394;2024-03-07T05:01:49;4.82;;;2.05;;
77722;SDS011;67811;42.656;23.394;2024-03-07T05:05:55;3.72;;;1.83;;
77722;SDS011;67811;42.656;23.394;2024-03-07T05:10:00;3.27;;;1.83;;
77722;SDS011;67811;42.656;23.394;2024-03-07T05:14:05;3.50;;;1.50;;
77722;SDS011;67811;42.656;23.394;2024-03-07T05:18:10;2.93;;;1.50;;
77722;SDS011;67811;42.656;23.394;2024-03-07T05:22:16;3.03;;;1.63;;
77722;SDS011;67811;42.656;23.394;2024-03-07T05:26:21;2.80;;;1.73;;
77722;SDS011;67811;42.656;23.394;2024-03-07T05:30:26;4.00;;;1.77;;
77722;SDS011;67811;42.656;23.394;2024-03-07T05:34:32;3.40;;;1.63;;
77722;SDS011;67811;42.656;23.394;2024-03-07T05:38:37;2.73;;;1.07;;
77722;SDS011;67811;42.656;23.394;2024-03-07T05:42:42;2.73;;;1.27;;
77722;SDS011;67811;42.656;23.394;2024-03-07T05:46:47;3.43;;;1.70;;
77722;SDS011;67811;42.656;23.394;2024-03-07T05:50:53;4.27;;;2.00;;
77722;SDS011;67811;42.656;23.394;2024-03-07T05:54:58;5.73;;;2.53;;
77722;SDS011;67811;42.656;23.394;2024-03-07T05:59:03;6.97;;;2.60;;
77722;SDS011;67811;42.656;23.394;2024-03-07T06:03:09;3.30;;;1.98;;
77722;SDS011;67811;42.656;23.394;2024-03-07T06:07:14;3.80;;;1.90;;
77722;SDS011;67811;42.656;23.394;2024-03-07T06:11:19;3.70;;;1.87;;
77722;SDS011;67811;42.656;23.394;2024-03-07T06:15:25;4.40;;;2.40;;
77722;SDS011;67811;42.656;23.394;2024-03-07T06:19:30;5.17;;;2.87;;
77722;SDS011;67811;42.656;23.394;2024-03-07T06:23:35;6.00;;;2.90;;
77722;SDS011;67811;42.656;23.394;2024-03-07T06:27:40;4.47;;;2.10;;
77722;SDS011;67811;42.656;23.394;2024-03-07T06:31:46;4.27;;;2.40;;
77722;SDS011;67811;42.656;23.394;2024-03-07T06:35:51;4.10;;;2.03;;
77722;SDS011;67811;42.656;23.394;2024-03-07T06:39:56;4.77;;;1.93;;
77722;SDS011;67811;42.656;23.394;2024-03-07T06:44:02;3.93;;;2.13;;
77722;SDS011;67811;42.656;23.394;2024-03-07T06:48:07;4.82;;;3.03;;
77722;SDS011;67811;42.656;23.394;2024-03-07T06:52:13;5.82;;;2.72;;
77722;SDS011;67811;42.656;23.394;2024-03-07T06:56:18;5.87;;;2.10;;
77722;SDS011;67811;42.656;23.394;2024-03-07T07:00:24;3.43;;;1.80;;
77722;SDS011;67811;42.656;23.394;2024-03-07T07:04:29;3.50;;;1.73;;
77722;SDS011;67811;42.656;23.394;2024-03-07T07:08:34;3.47;;;1.80;;
77722;SDS011;67811;42.656;23.394;2024-03-07T07:12:40;4.47;;;2.10;;
77722;SDS011;67811;42.656;23.394;2024-03-07T07:16:45;5.93;;;1.77;;
77722;SDS011;67811;42.656;23.394;2024-03-07T07:20:50;5.23;;;2.07;;
77722;SDS011;67811;42.656;23.394;2024-03-07T07:24:56;5.13;;;2.17;;
77722;SDS011;67811;42.656;23.394;2024-03-07T07:29:01;4.47;;;2.13;;
77722;SDS011;67811;42.656;23.394;2024-03-07T07:33:06;4.73;;;1.63;;
77722;SDS011;67811;42.656;23.394;2024-03-07T07:37:11;4.47;;;2.10;;
77722;SDS011;67811;42.656;23.394;2024-03-07T07:41:17;3.57;;;1.67;;
77722;SDS011;67811;42.656;23.394;2024-03-07T07:45:22;3.97;;;2.00;;
77722;SDS011;67811;42.656;23.394;2024-03-07T07:49:29;4.82;;;2.20;;
77722;SDS011;67811;42.656;23.394;2024-03-07T07:53:34;3.97;;;1.77;;
77722;SDS011;67811;42.656;23.394;2024-03-07T07:58:01;4.22;;;2.15;;
77722;SDS011;67811;42.656;23.394;2024-03-07T08:02:05;4.93;;;2.53;;
77722;SDS011;67811;42.656;23.394;2024-03-07T08:06:11;4.03;;;1.73;;
77722;SDS011;67811;42.656;23.394;2024-03-07T08:10:17;5.43;;;2.57;;
77722;SDS011;67811;42.656;23.394;2024-03-07T08:14:26;3.95;;;2.05;;
77722;SDS011;67811;42.656;23.394;2024-03-07T08:18:31;3.43;;;1.53;;
77722;SDS011;67811;42.656;23.394;2024-03-07T08:22:40;3.90;;;1.93;;
77722;SDS011;67811;42.656;23.394;2024-03-07T08:26:46;3.63;;;1.33;;
77722;SDS011;67811;42.656;23.394;2024-03-07T08:30:52;3.03;;;1.33;;
77722;SDS011;67811;42.656;23.394;2024-03-07T08:34:57;4.37;;;2.10;;
77722;SDS011;67811;42.656;23.394;2024-03-07T08:39:02;3.47;;;1.37;;
77722;SDS011;67811;42.656;23.394;2024-03-07T08:43:07;3.73;;;1.80;;
77722;SDS011;67811;42.656;23.394;2024-03-07T08:47:13;4.33;;;1.77;;
77722;SDS011;67811;42.656;23.394;2024-03-07T08:51:18;4.50;;;1.73;;
77722;SDS011;67811;42.656;23.394;2024-03-07T08:55:23;4.27;;;1.80;;
77722;SDS011;67811;42.656;23.394;2024-03-07T08:59:30;4.22;;;2.00;;
77722;SDS011;67811;42.656;23.394;2024-03-07T09:03:35;3.97;;;1.97;;
77722;SDS011;67811;42.656;23.394;2024-03-07T09:07:40;6.30;;;2.50;;
77722;SDS011;67811;42.656;23.394;2024-03-07T09:11:45;5.97;;;2.23;;
77722;SDS011;67811;42.656;23.394;2024-03-07T09:15:51;4.70;;;2.40;;
77722;SDS011;67811;42.656;23.394;2024-03-07T09:19:56;4.23;;;2.00;;
77722;SDS011;67811;42.656;23.394;2024-03-07T09:24:01;5.40;;;2.10;;
77722;SDS011;67811;42.656;23.394;2024-03-07T09:28:07;6.10;;;2.10;;
77722;SDS011;67811;42.656;23.394;2024-03-07T09:32:12;5.70;;;2.00;;
77722;SDS011;67811;42.656;23.394;2024-03-07T09:36:17;6.37;;;2.00;;
77722;SDS011;67811;42.656;23.394;2024-03-07T09:40:22;4.43;;;2.10;;
77722;SDS011;67811;42.656;23.394;2024-03-07T09:44:28;5.17;;;2.40;;
77722;SDS011;67811;42.656;23.394;2024-03-07T09:48:34;5.90;;;2.28;;
77722;SDS011;67811;42.656;23.394;2024-03-07T09:52:39;4.90;;;2.30;;
77722;SDS011;67811;42.656;23.394;2024-03-07T09:56:48;5.35;;;2.20;;
77722;SDS011;67811;42.656;23.394;2024-03-07T10:00:54;5.10;;;2.35;;
77722;SDS011;67811;42.656;23.394;2024-03-07T10:04:59;3.40;;;1.83;;
77722;SDS011;67811;42.656;23.394;2024-03-07T10:09:09;3.10;;;1.58;;
77722;SDS011;67811;42.656;23.394;2024-03-07T10:13:15;3.42;;;1.95;;
77722;SDS011;67811;42.656;23.394;2024-03-07T10:17:20;6.10;;;3.17;;
77722;SDS011;67811;42.656;23.394;2024-03-07T10:21:28;4.60;;;2.38;;
77722;SDS011;67811;42.656;23.394;2024-03-07T10:25:34;11.43;;;3.87;;
77722;SDS011;67811;42.656;23.394;2024-03-07T10:29:39;3.50;;;1.70;;
77722;SDS011;67811;42.656;23.394;2024-03-07T10:33:44;4.93;;;2.63;;
77722;SDS011;67811;42.656;23.394;2024-03-07T10:37:53;4.60;;;1.77;;
77722;SDS011;67811;42.656;23.394;2024-03-07T10:42:00;3.72;;;1.70;;
77722;SDS011;67811;42.656;23.394;2024-03-07T10:46:06;6.55;;;1.85;;
77722;SDS011;67811;42.656;23.394;2024-03-07T10:50:17;5.05;;;1.95;;
77722;SDS011;67811;42.656;23.394;2024-03-07T10:54:48;2.85;;;1.45;;
77722;SDS011;67811;42.656;23.394;2024-03-07T11:03:21;2.40;;;1.20;;
77722;SDS011;67811;42.656;23.394;2024-03-07T11:07:26;3.70;;;2.00;;
77722;SDS011;67811;42.656;23.394;2024-03-07T11:11:32;4.00;;;2.28;;
77722;SDS011;67811;42.656;23.394;2024-03-07T11:15:41;7.03;;;3.20;;
77722;SDS011;67811;42.656;23.394;2024-03-07T11:19:49;4.22;;;2.38;;
77722;SDS011;67811;42.656;23.394;2024-03-07T11:23:54;5.57;;;2.97;;
77722;SDS011;67811;42.656;23.394;2024-03-07T11:28:00;6.30;;;2.93;;
77722;SDS011;67811;42.656;23.394;2024-03-07T11:32:06;7.05;;;4.43;;
77722;SDS011;67811;42.656;23.394;2024-03-07T11:36:13;5.70;;;3.78;;
77722;SDS011;67811;42.656;23.394;2024-03-07T11:40:50;6.95;;;4.03;;
77722;SDS011;67811;42.656;23.394;2024-03-07T11:44:56;5.75;;;2.75;;
77722;SDS011;67811;42.656;23.394;2024-03-07T11:49:02;4.43;;;2.20;;
77722;SDS011;67811;42.656;23.394;2024-03-07T11:53:08;3.83;;;2.27;;
77722;SDS011;67811;42.656;23.394;2024-03-07T11:57:19;6.50;;;3.50;;
77722;SDS011;67811;42.656;23.394;2024-03-07T12:01:26;6.22;;;3.00;;
77722;SDS011;67811;42.656;23.394;2024-03-07T12:05:32;6.25;;;2.65;;
77722;SDS011;67811;42.656;23.394;2024-03-07T12:09:38;4.65;;;2.53;;
77722;SDS011;67811;42.656;23.394;2024-03-07T12:13:44;3.65;;;2.00;;
77722;SDS011;67811;42.656;23.394;2024-03-07T12:17:50;6.53;;;3.63;;
77722;SDS011;67811;42.656;23.394;2024-03-07T12:22:02;6.07;;;2.67;;
77722;SDS011;67811;42.656;23.394;2024-03-07T12:26:07;8.00;;;2.63;;
77722;SDS011;67811;42.656;23.394;2024-03-07T12:30:16;8.67;;;4.47;;
77722;SDS011;67811;42.656;23.394;2024-03-07T12:34:21;8.63;;;3.70;;
77722;SDS011;67811;42.656;23.394;2024-03-07T12:38:26;7.67;;;3.93;;
77722;SDS011;67811;42.656;23.394;2024-03-07T12:42:33;8.63;;;6.00;;
77722;SDS011;67811;42.656;23.394;2024-03-07T12:46:39;10.50;;;4.10;;
77722;SDS011;67811;42.656;23.394;2024-03-07T12:50:45;6.30;;;3.90;;
77722;SDS011;67811;42.656;23.394;2024-03-07T12:54:51;7.90;;;3.80;;
77722;SDS011;67811;42.656;23.394;2024-03-07T12:58:56;7.97;;;5.03;;
77722;SDS011;67811;42.656;23.394;2024-03-07T13:03:01;8.27;;;4.80;;
77722;SDS011;67811;42.656;23.394;2024-03-07T13:07:07;9.55;;;4.50;;
77722;SDS011;67811;42.656;23.394;2024-03-07T13:11:12;6.90;;;4.20;;
77722;SDS011;67811;42.656;23.394;2024-03-07T13:15:18;6.27;;;4.10;;
77722;SDS011;67811;42.656;23.394;2024-03-07T13:19:23;6.38;;;4.05;;
77722;SDS011;67811;42.656;23.394;2024-03-07T13:23:29;6.03;;;3.43;;
77722;SDS011;67811;42.656;23.394;2024-03-07T13:27:34;5.97;;;3.20;;
77722;SDS011;67811;42.656;23.394;2024-03-07T13:31:39;5.07;;;2.83;;
77722;SDS011;67811;42.656;23.394;2024-03-07T13:35:45;5.50;;;3.50;;
77722;SDS011;67811;42.656;23.394;2024-03-07T13:39:50;5.83;;;3.47;;
77722;SDS011;67811;42.656;23.394;2024-03-07T13:43:56;6.40;;;3.03;;
77722;SDS011;67811;42.656;23.394;2024-03-07T13:48:01;6.17;;;3.23;;
77722;SDS011;67811;42.656;23.394;2024-03-07T13:52:06;5.57;;;2.70;;
77722;SDS011;67811;42.656;23.394;2024-03-07T14:00:31;6.00;;;3.22;;
77722;SDS011;67811;42.656;23.394;2024-03-07T14:27:38;6.70;;;3.90;;
77722;SDS011;67811;42.656;23.394;2024-03-07T14:31:54;7.68;;;4.13;;
77722;SDS011;67811;42.656;23.394;2024-03-07T14:36:02;7.60;;;3.35;;
77722;SDS011;67811;42.656;23.394;2024-03-07T14:40:14;12.23;;;5.63;;
77722;SDS011;67811;42.656;23.394;2024-03-07T14:44:20;9.38;;;4.70;;
77722;SDS011;67811;42.656;23.394;2024-03-07T14:48:26;8.02;;;4.57;;
77722;SDS011;67811;42.656;23.394;2024-03-07T14:52:31;10.50;;;4.40;;
77722;SDS011;67811;42.656;23.394;2024-03-07T14:56:37;6.97;;;3.93;;
77722;SDS011;67811;42.656;23.394;2024-03-07T15:00:42;9.10;;;4.43;;
77722;SDS011;67811;42.656;23.394;2024-03-07T15:04:47;6.77;;;3.40;;
77722;SDS011;67811;42.656;23.394;2024-03-07T15:08:53;10.13;;;4.50;;
77722;SDS011;67811;42.656;23.394;2024-03-07T15:12:59;9.60;;;5.03;;
77722;SDS011;67811;42.656;23.394;2024-03-07T15:17:04;10.80;;;4.80;;
77722;SDS011;67811;42.656;23.394;2024-03-07T15:21:09;9.53;;;4.60;;
77722;SDS011;67811;42.656;23.394;2024-03-07T15:25:15;16.30;;;5.23;;
77722;SDS011;67811;42.656;23.394;2024-03-07T15:29:20;10.77;;;5.40;;
77722;SDS011;67811;42.656;23.394;2024-03-07T15:33:25;9.20;;;4.63;;
77722;SDS011;67811;42.656;23.394;2024-03-07T15:37:31;7.17;;;3.30;;
77722;SDS011;67811;42.656;23.394;2024-03-07T15:41:36;8.50;;;5.00;;
77722;SDS011;67811;42.656;23.394;2024-03-07T15:45:41;9.53;;;3.80;;
77722;SDS011;67811;42.656;23.394;2024-03-07T15:49:46;7.63;;;4.33;;
77722;SDS011;67811;42.656;23.394;2024-03-07T15:53:52;8.07;;;3.83;;
77722;SDS011;67811;42.656;23.394;2024-03-07T15:57:59;7.80;;;4.60;;
77722;SDS011;67811;42.656;23.394;2024-03-07T16:02:05;9.00;;;4.68;;
77722;SDS011;67811;42.656;23.394;2024-03-07T16:06:11;8.40;;;4.53;;
77722;SDS011;67811;42.656;23.394;2024-03-07T16:10:16;10.93;;;5.07;;
77722;SDS011;67811;42.656;23.394;2024-03-07T16:14:21;11.00;;;5.60;;
77722;SDS011;67811;42.656;23.394;2024-03-07T16:18:27;10.17;;;5.00;;
77722;SDS011;67811;42.656;23.394;2024-03-07T16:22:32;11.53;;;6.00;;
77722;SDS011;67811;42.656;23.394;2024-03-07T16:26:37;9.30;;;4.57;;
77722;SDS011;67811;42.656;23.394;2024-03-07T16:30:43;10.20;;;5.67;;
77722;SDS011;67811;42.656;23.394;2024-03-07T16:34:48;15.43;;;7.43;;
77722;SDS011;67811;42.656;23.394;2024-03-07T16:38:53;11.70;;;5.65;;
77722;SDS011;67811;42.656;23.394;2024-03-07T16:42:59;13.40;;;7.27;;
77722;SDS011;67811;42.656;23.394;2024-03-07T16:47:04;16.33;;;8.13;;
77722;SDS011;67811;42.656;23.394;2024-03-07T16:51:10;12.33;;;6.93;;
77722;SDS011;67811;42.656;23.394;2024-03-07T16:55:15;14.20;;;8.40;;
77722;SDS011;67811;42.656;23.394;2024-03-07T16:59:21;14.48;;;7.43;;
77722;SDS011;67811;42.656;23.394;2024-03-07T17:03:27;13.97;;;7.30;;
77722;SDS011;67811;42.656;23.394;2024-03-07T17:07:32;5.53;;;3.17;;
77722;SDS011;67811;42.656;23.394;2024-03-07T17:11:37;4.30;;;2.23;;
77722;SDS011;67811;42.656;23.394;2024-03-07T17:15:42;3.20;;;1.43;;
77722;SDS011;67811;42.656;23.394;2024-03-07T17:19:48;2.90;;;1.43;;
77722;SDS011;67811;42.656;23.394;2024-03-07T17:23:53;3.10;;;1.50;;
77722;SDS011;67811;42.656;23.394;2024-03-07T17:27:58;4.53;;;2.17;;
77722;SDS011;67811;42.656;23.394;2024-03-07T17:32:04;1.17;;;0.57;;
77722;SDS011;67811;42.656;23.394;2024-03-07T17:36:11;2.13;;;0.85;;
77722;SDS011;67811;42.656;23.394;2024-03-07T17:40:16;1.90;;;0.98;;
77722;SDS011;67811;42.656;23.394;2024-03-07T17:44:25;3.67;;;1.58;;
77722;SDS011;67811;42.656;23.394;2024-03-07T17:48:30;3.47;;;1.83;;
77722;SDS011;67811;42.656;23.394;2024-03-07T17:52:35;3.20;;;1.60;;
77722;SDS011;67811;42.656;23.394;2024-03-07T17:56:41;3.67;;;1.90;;
77722;SDS011;67811;42.656;23.394;2024-03-07T18:00:46;3.73;;;1.70;;
77722;SDS011;67811;42.656;23.394;2024-03-07T18:04:51;2.70;;;0.77;;
77722;SDS011;67811;42.656;23.394;2024-03-07T18:08:57;4.63;;;2.13;;
77722;SDS011;67811;42.656;23.394;2024-03-07T18:13:02;5.87;;;2.30;;
77722;SDS011;67811;42.656;23.394;2024-03-07T18:17:12;5.07;;;2.50;;
77722;SDS011;67811;42.656;23.394;2024-03-07T18:21:20;6.20;;;2.65;;
77722;SDS011;67811;42.656;23.394;2024-03-07T18:25:25;6.07;;;2.83;;
77722;SDS011;67811;42.656;23.394;2024-03-07T18:29:40;4.97;;;2.60;;
77722;SDS011;67811;42.656;23.394;2024-03-07T18:33:45;5.80;;;3.10;;
77722;SDS011;67811;42.656;23.394;2024-03-07T18:37:50;1.33;;;0.93;;
77722;SDS011;67811;42.656;23.394;2024-03-07T18:41:56;3.30;;;2.50;;
77722;SDS011;67811;42.656;23.394;2024-03-07T18:46:01;1.27;;;0.50;;
77722;SDS011;67811;42.656;23.394;2024-03-07T18:50:07;2.70;;;1.50;;
77722;SDS011;67811;42.656;23.394;2024-03-07T18:54:16;4.53;;;1.90;;
77722;SDS011;67811;42.656;23.394;2024-03-07T18:58:21;6.13;;;2.40;;
77722;SDS011;67811;42.656;23.394;2024-03-07T19:02:26;6.20;;;3.13;;
77722;SDS011;67811;42.656;23.394;2024-03-07T19:06:35;3.43;;;1.70;;
77722;SDS011;67811;42.656;23.394;2024-03-07T19:10:44;6.03;;;3.03;;
77722;SDS011;67811;42.656;23.394;2024-03-07T19:14:51;5.20;;;2.40;;
77722;SDS011;67811;42.656;23.394;2024-03-07T19:18:56;7.73;;;2.70;;
77722;SDS011;67811;42.656;23.394;2024-03-07T19:23:01;3.37;;;1.57;;
77722;SDS011;67811;42.656;23.394;2024-03-07T19:27:07;1.20;;;0.97;;
77722;SDS011;67811;42.656;23.394;2024-03-07T19:31:12;4.70;;;2.00;;
77722;SDS011;67811;42.656;23.394;2024-03-07T19:35:17;4.10;;;1.83;;
77722;SDS011;67811;42.656;23.394;2024-03-07T19:39:22;7.53;;;3.33;;
77722;SDS011;67811;42.656;23.394;2024-03-07T19:43:28;7.50;;;3.53;;
77722;SDS011;67811;42.656;23.394;2024-03-07T19:47:33;3.13;;;1.67;;
77722;SDS011;67811;42.656;23.394;2024-03-07T19:51:38;6.60;;;3.53;;
77722;SDS011;67811;42.656;23.394;2024-03-07T19:55:45;9.90;;;4.00;;
77722;SDS011;67811;42.656;23.394;2024-03-07T19:59:50;7.28;;;3.55;;
77722;SDS011;67811;42.656;23.394;2024-03-07T20:03:56;7.67;;;3.70;;
77722;SDS011;67811;42.656;23.394;2024-03-07T20:08:01;10.13;;;4.57;;
77722;SDS011;67811;42.656;23.394;2024-03-07T20:12:06;11.87;;;5.20;;
77722;SDS011;67811;42.656;23.394;2024-03-07T20:16:12;14.73;;;6.70;;
77722;SDS011;67811;42.656;23.394;2024-03-07T20:20:17;12.20;;;5.67;;
77722;SDS011;67811;42.656;23.394;2024-03-07T20:24:22;7.60;;;3.85;;
77722;SDS011;67811;42.656;23.394;2024-03-07T20:28:28;7.90;;;4.60;;
77722;SDS011;67811;42.656;23.394;2024-03-07T20:32:33;10.57;;;5.60;;
77722;SDS011;67811;42.656;23.394;2024-03-07T20:36:38;10.33;;;4.13;;
77722;SDS011;67811;42.656;23.394;2024-03-07T20:40:44;8.20;;;3.60;;
77722;SDS011;67811;42.656;23.394;2024-03-07T20:44:49;7.47;;;3.33;;
77722;SDS011;67811;42.656;23.394;2024-03-07T20:48:54;7.37;;;3.83;;
77722;SDS011;67811;42.656;23.394;2024-03-07T20:52:59;7.60;;;3.60;;
77722;SDS011;67811;42.656;23.394;2024-03-07T20:57:05;7.97;;;3.53;;
77722;SDS011;67811;42.656;23.394;2024-03-07T21:01:10;6.43;;;2.97;;
77722;SDS011;67811;42.656;23.394;2024-03-07T21:05:15;9.13;;;4.47;;
77722;SDS011;67811;42.656;23.394;2024-03-07T21:09:21;9.13;;;4.33;;
77722;SDS011;67811;42.656;23.394;2024-03-07T21:13:26;11.80;;;6.23;;
77722;SDS011;67811;42.656;23.394;2024-03-07T21:17:31;9.57;;;3.77;;
77722;SDS011;67811;42.656;23.394;2024-03-07T21:21:37;8.87;;;3.93;;
77722;SDS011;67811;42.656;23.394;2024-03-07T21:25:42;11.43;;;4.90;;
77722;SDS011;67811;42.656;23.394;2024-03-07T21:29:47;11.00;;;5.23;;
77722;SDS011;67811;42.656;23.394;2024-03-07T21:33:53;12.73;;;5.57;;
77722;SDS011;67811;42.656;23.394;2024-03-07T21:37:58;10.43;;;5.47;;
77722;SDS011;67811;42.656;23.394;2024-03-07T21:42:03;11.20;;;4.70;;
77722;SDS011;67811;42.656;23.394;2024-03-07T21:46:09;12.38;;;5.95;;
77722;SDS011;67811;42.656;23.394;2024-03-07T21:50:14;13.60;;;5.60;;
77722;SDS011;67811;42.656;23.394;2024-03-07T21:54:20;12.98;;;5.20;;
77722;SDS011;67811;42.656;23.394;2024-03-07T21:58:25;10.63;;;4.90;;
77722;SDS011;67811;42.656;23.394;2024-03-07T22:02:31;11.38;;;4.97;;
77722;SDS011;67811;42.656;23.394;2024-03-07T22:06:36;12.00;;;5.20;;
77722;SDS011;67811;42.656;23.394;2024-03-07T22:10:41;14.27;;;5.37;;
77722;SDS011;67811;42.656;23.394;2024-03-07T22:14:47;14.75;;;6.32;;
77722;SDS011;67811;42.656;23.394;2024-03-07T22:18:53;14.17;;;6.07;;
77722;SDS011;67811;42.656;23.394;2024-03-07T22:22:58;13.93;;;6.47;;
77722;SDS011;67811;42.656;23.394;2024-03-07T22:27:04;11.87;;;5.67;;
77722;SDS011;67811;42.656;23.394;2024-03-07T22:31:09;11.43;;;5.47;;
77722;SDS011;67811;42.656;23.394;2024-03-07T22:35:14;11.00;;;5.53;;
77722;SDS011;67811;42.656;23.394;2024-03-07T22:39:20;12.03;;;5.17;;
77722;SDS011;67811;42.656;23.394;2024-03-07T22:43:25;17.10;;;7.53;;
77722;SDS011;67811;42.656;23.394;2024-03-07T22:47:30;12.93;;;6.33;;
77722;SDS011;67811;42.656;23.394;2024-03-07T22:51:35;9.90;;;5.70;;
77722;SDS011;67811;42.656;23.394;2024-03-07T22:55:41;11.80;;;5.50;;
77722;SDS011;67811;42.656;23.394;2024-03-07T22:59:46;13.77;;;6.13;;
77722;SDS011;67811;42.656;23.394;2024-03-07T23:03:51;12.57;;;5.73;;
77722;SDS011;67811;42.656;23.394;2024-03-07T23:07:57;12.37;;;5.37;;
77722;SDS011;67811;42.656;23.394;2024-03-07T23:12:02;10.70;;;4.63;;
77722;SDS011;67811;42.656;23.394;2024-03-07T23:16:08;11.02;;;5.70;;
77722;SDS011;67811;42.656;23.394;2024-03-07T23:20:13;10.73;;;4.53;;
77722;SDS011;67811;42.656;23.394;2024-03-07T23:24:18;10.40;;;4.80;;
77722;SDS011;67811;42.656;23.394;2024-03-07T23:28:24;8.30;;;3.83;;
77722;SDS011;67811;42.656;23.394;2024-03-07T23:32:29;8.30;;;4.30;;
77722;SDS011;67811;42.656;23.394;2024-03-07T23:36:34;8.47;;;3.77;;
77722;SDS011;67811;42.656;23.394;2024-03-07T23:40:39;9.27;;;4.43;;
77722;SDS011;67811;42.656;23.394;2024-03-07T23:44:45;7.10;;;3.40;;
77722;SDS011;67811;42.656;23.394;2024-03-07T23:48:53;8.07;;;3.80;;
77722;SDS011;67811;42.656;23.394;2024-03-07T23:52:58;8.52;;;3.92;;
77722;SDS011;67811;42.656;23.394;2024-03-07T23:57:03;8.23;;;3.67;;
